Watford, Canada
Current Conditions -  °F | °C
As of 1:00 AM on Friday 31 Oct 2014 (Local Time) from CYZR Reporting Station
Light Rain Light Rain  
Wind Chill:   Ceiling: 3600
Heat Index:   Visibility: 9mi
Dew Point:   Wind: 5mph
Humidity: 76%   Direction: 190°S
Pressure: 29.98"   Gusts: NA
Location:  42.95°N, 81.88°W
Report Text: CYZR 310500Z AUTO 19004KT 9SM -RA OVC036 07/03 A2998 RMK SLP155
Loading
Personal Weather Stations






























Interactive Weather Map
Tropical Storm Tracking
New forecast layout! Learn more

10-Day Weather Forecast

Advertisements
Track Severe Weather on mobile